Island Venture — WDG3765 — position and weather

sailwx.info

Track history (hours):
 
Tides and Currents Weather Stations Pressure Air Temp Water Temp Dewpoint Dewpoint Depression Visibility Wind Speed Wind Dir Waves Ship Positions

Island Venture

Owner: Island Tug and Barge, Seattle, WA. More information available from US FCC via Universal Licensing System and Coast Guard Vessel Documentation Center.

Last reported at 2017-Feb-23 20:24 UTC. Time now 2017-Feb-24 08:19 UTC.
Position N 47°16' W 122°33'.

MMSI: 367529420.

Date/timePositionNaut miles runAvg speedWind from/ knotsBaromVisibWave heightAir tempDewpointWater temp
2017-Feb-23 20:24N 47°16' W 122°33'7 8.9
2017-Feb-23 19:33N 47°23' W 122°32'8 8.4
2017-Feb-23 18:33N 47°31' W 122°29'6 5.9
2017-Feb-23 17:33N 47°34' W 122°21'0 0.5
2017-Feb-23 16:33N 47°34' W 122°21'0 0.3
2017-Feb-23 15:33N 47°34' W 122°21'0 0.0
2017-Feb-23 14:33N 47°34' W 122°21'0 0.0
2017-Feb-23 13:33N 47°34' W 122°21'0 0.0
2017-Feb-23 12:33N 47°34' W 122°21'0 0.0
2017-Feb-23 11:34N 47°34' W 122°21'0 0.0
2017-Feb-23 10:33N 47°34' W 122°21'0 0.0
2017-Feb-23 09:33N 47°34' W 122°21'0 0.0
2017-Feb-23 08:33N 47°34' W 122°21'1 1.1
2017-Feb-23 07:33N 47°33' W 122°20'2 2.0
2017-Feb-23 06:33N 47°35' W 122°22'1 0.7
2017-Feb-23 05:33N 47°34' W 122°21'2 2.3
2017-Feb-23 04:33N 47°36' W 122°23'6 5.8
2017-Feb-23 03:33N 47°32' W 122°28'7 7.1
2017-Feb-23 02:33N 47°25' W 122°32'7 7.4
2017-Feb-23 01:33N 47°17' W 122°32'8 7.6
2017-Feb-23 00:33N 47°11' W 122°39'10 0.7
2017-Feb-22 09:29N 47°09' W 122°53'11 5.7
2017-Feb-22 07:29N 47°12' W 122°37'8 8.7
2017-Feb-22 06:33N 47°19' W 122°33'7 7.3
2017-Feb-22 05:33N 47°26' W 122°31'7 7.4
2017-Feb-22 04:33N 47°33' W 122°27'4 4.2
2017-Feb-22 03:33N 47°34' W 122°22'0 0.2
2017-Feb-22 02:33N 47°34' W 122°21'1 0.5
2017-Feb-22 01:33N 47°34' W 122°21'0 0.4
2017-Feb-22 00:33N 47°34' W 122°21'3 2.6
2017-Feb-21 23:33N 47°35' W 122°25'5 5.1
2017-Feb-21 22:33N 47°31' W 122°29'6 6.0
2017-Feb-21 21:33N 47°25' W 122°32'6 5.7
2017-Feb-21 20:33N 47°20' W 122°33'5 4.8
2017-Feb-21 19:33N 47°15' W 122°34'5 5.5
2017-Feb-21 18:33N 47°11' W 122°38'2 2.5
2017-Feb-21 17:33N 47°08' W 122°39'0 0.0
2017-Feb-21 16:33N 47°08' W 122°39'0 0.0
2017-Feb-21 15:32N 47°08' W 122°39'0 0.0
2017-Feb-21 13:33N 47°08' W 122°39'1 0.6
2017-Feb-21 12:29N 47°08' W 122°40'11 5.6
2017-Feb-21 10:33N 47°18' W 122°33'7 6.9
2017-Feb-21 09:33N 47°25' W 122°32'7 6.9
2017-Feb-21 08:33N 47°31' W 122°29'6 6.3
2017-Feb-21 07:33N 47°35' W 122°22'3 2.8
2017-Feb-21 06:32N 47°33' W 122°20'1 1.0
2017-Feb-21 05:32N 47°34' W 122°21'0 0.0
2017-Feb-21 04:33N 47°34' W 122°21'0 0.2
2017-Feb-21 03:33N 47°34' W 122°21'3 3.4
2017-Feb-21 02:33N 47°35' W 122°26'6 6.5
2017-Feb-21 01:33N 47°29' W 122°30'6 6.3
2017-Feb-21 00:33N 47°23' W 122°32'8 7.6
2017-Feb-20 23:33N 47°15' W 122°34'3 0.1
2017-Feb-20 05:23N 47°13' W 122°35'8 9.2
2017-Feb-20 04:33N 47°20' W 122°33'7 6.9
2017-Feb-20 03:33N 47°27' W 122°31'7 7.0
2017-Feb-20 02:33N 47°34' W 122°28'4 4.0
2017-Feb-20 01:33N 47°35' W 122°22'2 1.7
2017-Feb-20 00:33N 47°34' W 122°21'1 0.9
2017-Feb-19 23:33N 47°34' W 122°22'0 0.2
2017-Feb-19 22:33N 47°34' W 122°21'0 0.0
2017-Feb-19 21:34N 47°34' W 122°21'0 0.0
2017-Feb-19 20:33N 47°34' W 122°21'  
2017-Feb-17 12:34N 47°34' W 122°21'2 1.7
2017-Feb-17 11:32N 47°33' W 122°20'0 0.0
2017-Feb-17 10:33N 47°33' W 122°20'0 0.0
2017-Feb-17 09:33N 47°33' W 122°20'0 0.0
2017-Feb-17 08:32N 47°33' W 122°20'0 0.0
2017-Feb-17 07:22N 47°33' W 122°20'0 0.0
2017-Feb-17 06:33N 47°33' W 122°20'0 0.0
2017-Feb-17 05:33N 47°33' W 122°20'0 0.0
2017-Feb-17 04:33N 47°33' W 122°20'0 0.0
2017-Feb-17 03:33N 47°33' W 122°20'0 0.0
2017-Feb-17 02:33N 47°33' W 122°20'3 2.7
2017-Feb-17 01:33N 47°35' W 122°22'3 2.6
2017-Feb-17 00:33N 47°33' W 122°20'3 2.9
2017-Feb-16 23:33N 47°35' W 122°22'5 5.4
2017-Feb-16 22:33N 47°32' W 122°28'8 7.7
2017-Feb-16 21:34N 47°25' W 122°32'9 8.6
2017-Feb-16 20:34N 47°16' W 122°33'3 0.1
2017-Feb-15 23:33N 47°19' W 122°33'6 6.1
2017-Feb-15 22:34N 47°25' W 122°32'6 5.7
2017-Feb-15 21:34N 47°30' W 122°29'6 6.3
2017-Feb-15 20:33N 47°36' W 122°24'2 2.3
2017-Feb-15 19:34N 47°34' W 122°21'0 0.0
2017-Feb-15 18:34N 47°34' W 122°21'0 0.0
2017-Feb-15 17:33N 47°34' W 122°21'0 0.0
2017-Feb-15 16:33N 47°34' W 122°21'0 0.0
2017-Feb-15 15:33N 47°34' W 122°21'0 0.0
2017-Feb-15 14:33N 47°34' W 122°21'0 0.0
2017-Feb-15 13:34N 47°34' W 122°21'2 1.5
2017-Feb-15 12:20N 47°33' W 122°20'2 2.8
2017-Feb-15 11:34N 47°35' W 122°22'4 3.7
2017-Feb-15 10:34N 47°34' W 122°27'6 6.3
2017-Feb-15 09:33N 47°28' W 122°31'7 6.6
2017-Feb-15 08:33N 47°21' W 122°33'8 8.0
2017-Feb-15 07:33N 47°13' W 122°35'10 0.3
2017-Feb-14 01:23N 47°11' W 122°49'9 7.1
2017-Feb-14 00:07N 47°12' W 122°36'2 3.7
2017-Feb-13 23:33N 47°10' W 122°38'  
Track history (hours):
 
Tides and Currents Weather Stations Pressure Air Temp Water Temp Dewpoint Dewpoint Depression Visibility Wind Speed Wind Dir Waves Ship Positions

Island Venture

Owner: Island Tug and Barge, Seattle, WA. More information available from US FCC via Universal Licensing System and Coast Guard Vessel Documentation Center.

Last reported at 2017-Feb-23 20:24 UTC. Time now 2017-Feb-24 08:19 UTC.
Position N 47°16' W 122°33'.

MMSI: 367529420.

Date/timePositionNaut miles runAvg speedWind from/ knotsBaromVisibWave heightAir tempDewpointWater temp
2017-Feb-23 20:24N 47°16' W 122°33'7 8.9
2017-Feb-23 19:33N 47°23' W 122°32'8 8.4
2017-Feb-23 18:33N 47°31' W 122°29'6 5.9
2017-Feb-23 17:33N 47°34' W 122°21'0 0.5
2017-Feb-23 16:33N 47°34' W 122°21'0 0.3
2017-Feb-23 15:33N 47°34' W 122°21'0 0.0
2017-Feb-23 14:33N 47°34' W 122°21'0 0.0
2017-Feb-23 13:33N 47°34' W 122°21'0 0.0
2017-Feb-23 12:33N 47°34' W 122°21'0 0.0
2017-Feb-23 11:34N 47°34' W 122°21'0 0.0
2017-Feb-23 10:33N 47°34' W 122°21'0 0.0
2017-Feb-23 09:33N 47°34' W 122°21'0 0.0
2017-Feb-23 08:33N 47°34' W 122°21'1 1.1
2017-Feb-23 07:33N 47°33' W 122°20'2 2.0
2017-Feb-23 06:33N 47°35' W 122°22'1 0.7
2017-Feb-23 05:33N 47°34' W 122°21'2 2.3
2017-Feb-23 04:33N 47°36' W 122°23'6 5.8
2017-Feb-23 03:33N 47°32' W 122°28'7 7.1
2017-Feb-23 02:33N 47°25' W 122°32'7 7.4
2017-Feb-23 01:33N 47°17' W 122°32'8 7.6
2017-Feb-23 00:33N 47°11' W 122°39'10 0.7
2017-Feb-22 09:29N 47°09' W 122°53'11 5.7
2017-Feb-22 07:29N 47°12' W 122°37'8 8.7
2017-Feb-22 06:33N 47°19' W 122°33'7 7.3
2017-Feb-22 05:33N 47°26' W 122°31'7 7.4
2017-Feb-22 04:33N 47°33' W 122°27'4 4.2
2017-Feb-22 03:33N 47°34' W 122°22'0 0.2
2017-Feb-22 02:33N 47°34' W 122°21'1 0.5
2017-Feb-22 01:33N 47°34' W 122°21'0 0.4
2017-Feb-22 00:33N 47°34' W 122°21'3 2.6
2017-Feb-21 23:33N 47°35' W 122°25'5 5.1
2017-Feb-21 22:33N 47°31' W 122°29'6 6.0
2017-Feb-21 21:33N 47°25' W 122°32'6 5.7
2017-Feb-21 20:33N 47°20' W 122°33'5 4.8
2017-Feb-21 19:33N 47°15' W 122°34'5 5.5
2017-Feb-21 18:33N 47°11' W 122°38'2 2.5
2017-Feb-21 17:33N 47°08' W 122°39'0 0.0
2017-Feb-21 16:33N 47°08' W 122°39'0 0.0
2017-Feb-21 15:32N 47°08' W 122°39'0 0.0
2017-Feb-21 13:33N 47°08' W 122°39'1 0.6
2017-Feb-21 12:29N 47°08' W 122°40'11 5.6
2017-Feb-21 10:33N 47°18' W 122°33'7 6.9
2017-Feb-21 09:33N 47°25' W 122°32'7 6.9
2017-Feb-21 08:33N 47°31' W 122°29'6 6.3
2017-Feb-21 07:33N 47°35' W 122°22'3 2.8
2017-Feb-21 06:32N 47°33' W 122°20'1 1.0
2017-Feb-21 05:32N 47°34' W 122°21'0 0.0
2017-Feb-21 04:33N 47°34' W 122°21'0 0.2
2017-Feb-21 03:33N 47°34' W 122°21'3 3.4
2017-Feb-21 02:33N 47°35' W 122°26'6 6.5
2017-Feb-21 01:33N 47°29' W 122°30'6 6.3
2017-Feb-21 00:33N 47°23' W 122°32'8 7.6
2017-Feb-20 23:33N 47°15' W 122°34'3 0.1
2017-Feb-20 05:23N 47°13' W 122°35'8 9.2
2017-Feb-20 04:33N 47°20' W 122°33'7 6.9
2017-Feb-20 03:33N 47°27' W 122°31'7 7.0
2017-Feb-20 02:33N 47°34' W 122°28'4 4.0
2017-Feb-20 01:33N 47°35' W 122°22'2 1.7
2017-Feb-20 00:33N 47°34' W 122°21'1 0.9
2017-Feb-19 23:33N 47°34' W 122°22'0 0.2
2017-Feb-19 22:33N 47°34' W 122°21'0 0.0
2017-Feb-19 21:34N 47°34' W 122°21'0 0.0
2017-Feb-19 20:33N 47°34' W 122°21'  
2017-Feb-17 12:34N 47°34' W 122°21'2 1.7
2017-Feb-17 11:32N 47°33' W 122°20'0 0.0
2017-Feb-17 10:33N 47°33' W 122°20'0 0.0
2017-Feb-17 09:33N 47°33' W 122°20'0 0.0
2017-Feb-17 08:32N 47°33' W 122°20'0 0.0
2017-Feb-17 07:22N 47°33' W 122°20'0 0.0
2017-Feb-17 06:33N 47°33' W 122°20'0 0.0
2017-Feb-17 05:33N 47°33' W 122°20'0 0.0
2017-Feb-17 04:33N 47°33' W 122°20'0 0.0
2017-Feb-17 03:33N 47°33' W 122°20'0 0.0
2017-Feb-17 02:33N 47°33' W 122°20'3 2.7
2017-Feb-17 01:33N 47°35' W 122°22'3 2.6
2017-Feb-17 00:33N 47°33' W 122°20'3 2.9
2017-Feb-16 23:33N 47°35' W 122°22'5 5.4
2017-Feb-16 22:33N 47°32' W 122°28'8 7.7
2017-Feb-16 21:34N 47°25' W 122°32'9 8.6
2017-Feb-16 20:34N 47°16' W 122°33'3 0.1
2017-Feb-15 23:33N 47°19' W 122°33'6 6.1
2017-Feb-15 22:34N 47°25' W 122°32'6 5.7
2017-Feb-15 21:34N 47°30' W 122°29'6 6.3
2017-Feb-15 20:33N 47°36' W 122°24'2 2.3
2017-Feb-15 19:34N 47°34' W 122°21'0 0.0
2017-Feb-15 18:34N 47°34' W 122°21'0 0.0
2017-Feb-15 17:33N 47°34' W 122°21'0 0.0
2017-Feb-15 16:33N 47°34' W 122°21'0 0.0
2017-Feb-15 15:33N 47°34' W 122°21'0 0.0
2017-Feb-15 14:33N 47°34' W 122°21'0 0.0
2017-Feb-15 13:34N 47°34' W 122°21'2 1.5
2017-Feb-15 12:20N 47°33' W 122°20'2 2.8
2017-Feb-15 11:34N 47°35' W 122°22'4 3.7
2017-Feb-15 10:34N 47°34' W 122°27'6 6.3
2017-Feb-15 09:33N 47°28' W 122°31'7 6.6
2017-Feb-15 08:33N 47°21' W 122°33'8 8.0
2017-Feb-15 07:33N 47°13' W 122°35'10 0.3
2017-Feb-14 01:23N 47°11' W 122°49'9 7.1
2017-Feb-14 00:07N 47°12' W 122°36'2 3.7
2017-Feb-13 23:33N 47°10' W 122°38'  

Dump ship's entire track history